| Date | Time | Temp. (oF) | Dew Point (oF) | Rel. Hum. (%) | Press. (in.) | Wind Dir. | Wind Speed (mph) | Hourly Rainfall (in.) |
|
|---|---|---|---|---|---|---|---|---|---|
| 1 | 04/20 | 00:00 | 53 | 48 | 86 | 30.04 | SW | 0 | 0.00 |
| 2 | 04/19 | 23:00 | 56 | 49 | 80 | 30.04 | SW | 2 | 0.00 |
| 3 | 04/19 | 22:00 | 57 | 49 | 77 | 30.04 | SW | 3 | 0.00 |
| 4 | 04/19 | 21:00 | 59 | 47 | 66 | 30.03 | SSW | 2 | 0.00 |
| 5 | 04/19 | 20:00 | 63 | 46 | 56 | 30.00 | SSW | 2 | 0.00 |
| 6 | 04/19 | 19:00 | 66 | 43 | 45 | 29.99 | SSW | 3 | 0.00 |
| 7 | 04/19 | 18:00 | 67 | 42 | 41 | 29.99 | SW | 1 | 0.00 |
| 8 | 04/19 | 17:00 | 68 | 46 | 46 | 30.00 | WNW | 3 | 0.00 |
| 9 | 04/19 | 16:00 | 68 | 46 | 47 | 30.01 | SW | 5 | 0.00 |
| 10 | 04/19 | 15:00 | 66 | 50 | 57 | 30.07 | SW | 1 | 0.00 |
| 11 | 04/19 | 14:00 | 62 | 52 | 70 | 30.10 | E | 3 | 0.00 |
| 12 | 04/19 | 13:00 | 60 | 53 | 79 | 30.11 | WNW | 2 | 0.00 |
| 13 | 04/19 | 12:00 | 57 | 52 | 85 | 30.13 | E | 2 | 0.00 |
| 14 | 04/19 | 11:00 | 54 | 52 | 93 | 30.14 | SW | 3 | 0.00 |
| 15 | 04/19 | 10:00 | 53 | 52 | 99 | 30.15 | NNE | 2 | 0.00 |
| 16 | 04/19 | 09:00 | 52 | 51 | 100 | 30.14 | NNE | 2 | 0.00 |
| 17 | 04/19 | 08:00 | 50 | 50 | 100 | 30.14 | SW | 0 | 0.00 |
| 18 | 04/19 | 07:00 | 49 | 49 | 100 | 30.13 | S | 0 | 0.00 |
| 19 | 04/19 | 06:00 | 49 | 49 | 100 | 30.12 | N | 0 | 0.00 |
| 20 | 04/19 | 05:00 | 48 | 48 | 100 | 30.11 | SSE | 0 | 0.00 |
| 21 | 04/19 | 04:00 | 48 | 48 | 100 | 30.12 | SW | 0 | 0.00 |
| 22 | 04/19 | 03:00 | 48 | 48 | 100 | 30.11 | ENE | 0 | 0.00 |
| 23 | 04/19 | 02:00 | 48 | 48 | 100 | 30.13 | SSW | 2 | 0.01 |
| 24 | 04/19 | 01:00 | 48 | 48 | 100 | 30.15 | SSW | 6 | 0.01 |